sensor_id;sensor_type;location;lat;lon;timestamp;P1;durP1;ratioP1;P2;durP2;ratioP2
3000;SDS011;1510;51.072;6.678;2023-05-06T00:00:46;966.97;;;791.63;;
3000;SDS011;1510;51.072;6.678;2023-05-06T00:03:14;979.20;;;799.53;;
3000;SDS011;1510;51.072;6.678;2023-05-06T00:05:42;967.83;;;783.97;;
3000;SDS011;1510;51.072;6.678;2023-05-06T00:08:10;979.90;;;792.00;;
3000;SDS011;1510;51.072;6.678;2023-05-06T00:10:37;988.57;;;792.97;;
3000;SDS011;1510;51.072;6.678;2023-05-06T00:13:04;984.77;;;799.83;;
3000;SDS011;1510;51.072;6.678;2023-05-06T00:15:32;1004.00;;;791.93;;
3000;SDS011;1510;51.072;6.678;2023-05-06T00:17:59;1000.70;;;802.00;;
3000;SDS011;1510;51.072;6.678;2023-05-06T00:20:28;986.07;;;795.83;;
3000;SDS011;1510;51.072;6.678;2023-05-06T00:22:56;982.17;;;784.97;;
3000;SDS011;1510;51.072;6.678;2023-05-06T00:25:23;976.80;;;785.67;;
3000;SDS011;1510;51.072;6.678;2023-05-06T00:27:49;974.17;;;782.80;;
3000;SDS011;1510;51.072;6.678;2023-05-06T00:30:17;986.73;;;804.20;;
3000;SDS011;1510;51.072;6.678;2023-05-06T00:32:44;969.37;;;796.00;;
3000;SDS011;1510;51.072;6.678;2023-05-06T00:35:11;953.30;;;782.33;;
3000;SDS011;1510;51.072;6.678;2023-05-06T00:37:39;957.37;;;786.00;;
3000;SDS011;1510;51.072;6.678;2023-05-06T00:40:10;966.37;;;777.87;;
3000;SDS011;1510;51.072;6.678;2023-05-06T00:42:38;975.37;;;774.00;;
3000;SDS011;1510;51.072;6.678;2023-05-06T00:45:05;970.13;;;762.20;;
3000;SDS011;1510;51.072;6.678;2023-05-06T00:47:32;976.60;;;766.50;;
3000;SDS011;1510;51.072;6.678;2023-05-06T00:50:00;981.50;;;788.80;;
3000;SDS011;1510;51.072;6.678;2023-05-06T00:52:28;979.87;;;798.80;;
3000;SDS011;1510;51.072;6.678;2023-05-06T00:54:56;982.83;;;762.80;;
3000;SDS011;1510;51.072;6.678;2023-05-06T00:57:23;986.73;;;783.10;;
3000;SDS011;1510;51.072;6.678;2023-05-06T00:59:51;995.90;;;796.47;;
3000;SDS011;1510;51.072;6.678;2023-05-06T01:02:18;994.47;;;770.97;;
3000;SDS011;1510;51.072;6.678;2023-05-06T01:04:45;990.63;;;791.90;;
3000;SDS011;1510;51.072;6.678;2023-05-06T01:07:15;1006.77;;;808.10;;
3000;SDS011;1510;51.072;6.678;2023-05-06T01:09:51;1019.30;;;806.57;;
3000;SDS011;1510;51.072;6.678;2023-05-06T01:12:28;1002.43;;;803.43;;
3000;SDS011;1510;51.072;6.678;2023-05-06T01:14:59;984.77;;;772.13;;
3000;SDS011;1510;51.072;6.678;2023-05-06T01:17:33;1008.50;;;791.33;;
3000;SDS011;1510;51.072;6.678;2023-05-06T01:20:03;996.03;;;816.73;;
3000;SDS011;1510;51.072;6.678;2023-05-06T01:22:35;988.67;;;811.23;;
3000;SDS011;1510;51.072;6.678;2023-05-06T01:25:04;986.50;;;791.17;;
3000;SDS011;1510;51.072;6.678;2023-05-06T01:27:32;999.90;;;772.17;;
3000;SDS011;1510;51.072;6.678;2023-05-06T01:29:58;973.73;;;778.90;;
3000;SDS011;1510;51.072;6.678;2023-05-06T01:32:33;1033.67;;;754.93;;
3000;SDS011;1510;51.072;6.678;2023-05-06T01:35:09;998.40;;;762.23;;
3000;SDS011;1510;51.072;6.678;2023-05-06T01:37:44;980.60;;;772.57;;
3000;SDS011;1510;51.072;6.678;2023-05-06T01:40:17;980.20;;;777.13;;
3000;SDS011;1510;51.072;6.678;2023-05-06T01:42:50;973.47;;;766.57;;
3000;SDS011;1510;51.072;6.678;2023-05-06T01:45:18;993.73;;;766.80;;
3000;SDS011;1510;51.072;6.678;2023-05-06T01:47:46;967.77;;;782.33;;
3000;SDS011;1510;51.072;6.678;2023-05-06T01:50:15;978.37;;;767.87;;
3000;SDS011;1510;51.072;6.678;2023-05-06T01:52:42;989.60;;;771.97;;
3000;SDS011;1510;51.072;6.678;2023-05-06T01:55:09;999.23;;;771.27;;
3000;SDS011;1510;51.072;6.678;2023-05-06T01:57:37;972.43;;;781.27;;
3000;SDS011;1510;51.072;6.678;2023-05-06T02:00:04;955.63;;;778.30;;
3000;SDS011;1510;51.072;6.678;2023-05-06T02:02:33;960.00;;;765.40;;
3000;SDS011;1510;51.072;6.678;2023-05-06T02:05:00;1018.17;;;754.70;;
3000;SDS011;1510;51.072;6.678;2023-05-06T02:07:28;959.93;;;776.77;;
3000;SDS011;1510;51.072;6.678;2023-05-06T02:09:55;977.90;;;786.90;;
3000;SDS011;1510;51.072;6.678;2023-05-06T02:12:21;997.43;;;778.90;;
3000;SDS011;1510;51.072;6.678;2023-05-06T02:14:50;947.40;;;771.77;;
3000;SDS011;1510;51.072;6.678;2023-05-06T02:17:17;1014.60;;;776.30;;
3000;SDS011;1510;51.072;6.678;2023-05-06T02:19:44;995.43;;;794.23;;
3000;SDS011;1510;51.072;6.678;2023-05-06T02:22:10;977.80;;;781.07;;
3000;SDS011;1510;51.072;6.678;2023-05-06T02:24:37;993.30;;;785.40;;
3000;SDS011;1510;51.072;6.678;2023-05-06T02:27:04;974.87;;;783.80;;
3000;SDS011;1510;51.072;6.678;2023-05-06T02:29:31;982.13;;;781.00;;
3000;SDS011;1510;51.072;6.678;2023-05-06T02:31:59;975.23;;;801.27;;
3000;SDS011;1510;51.072;6.678;2023-05-06T02:34:26;977.30;;;806.53;;
3000;SDS011;1510;51.072;6.678;2023-05-06T02:36:53;981.67;;;802.50;;
3000;SDS011;1510;51.072;6.678;2023-05-06T02:39:21;1028.43;;;823.50;;
3000;SDS011;1510;51.072;6.678;2023-05-06T02:41:48;1011.20;;;807.33;;
3000;SDS011;1510;51.072;6.678;2023-05-06T02:44:15;1004.03;;;820.47;;
3000;SDS011;1510;51.072;6.678;2023-05-06T02:46:42;1010.60;;;814.17;;
3000;SDS011;1510;51.072;6.678;2023-05-06T02:49:10;989.70;;;804.83;;
3000;SDS011;1510;51.072;6.678;2023-05-06T02:51:37;1018.50;;;829.67;;
3000;SDS011;1510;51.072;6.678;2023-05-06T02:54:04;1020.30;;;805.17;;
3000;SDS011;1510;51.072;6.678;2023-05-06T02:56:31;1011.97;;;813.53;;
3000;SDS011;1510;51.072;6.678;2023-05-06T02:58:59;978.13;;;785.60;;
3000;SDS011;1510;51.072;6.678;2023-05-06T03:01:26;980.00;;;790.97;;
3000;SDS011;1510;51.072;6.678;2023-05-06T03:03:52;997.30;;;782.70;;
3000;SDS011;1510;51.072;6.678;2023-05-06T03:06:21;992.30;;;789.60;;
3000;SDS011;1510;51.072;6.678;2023-05-06T03:08:48;978.20;;;789.27;;
3000;SDS011;1510;51.072;6.678;2023-05-06T03:11:15;996.60;;;806.60;;
3000;SDS011;1510;51.072;6.678;2023-05-06T03:13:42;996.63;;;785.53;;
3000;SDS011;1510;51.072;6.678;2023-05-06T03:16:10;981.97;;;812.50;;
3000;SDS011;1510;51.072;6.678;2023-05-06T03:18:38;1041.50;;;853.73;;
3000;SDS011;1510;51.072;6.678;2023-05-06T03:21:05;1015.43;;;850.10;;
3000;SDS011;1510;51.072;6.678;2023-05-06T03:23:33;1018.33;;;845.47;;
3000;SDS011;1510;51.072;6.678;2023-05-06T03:26:00;1027.20;;;836.43;;
3000;SDS011;1510;51.072;6.678;2023-05-06T03:28:27;996.60;;;820.43;;
3000;SDS011;1510;51.072;6.678;2023-05-06T03:30:54;1021.83;;;819.57;;
3000;SDS011;1510;51.072;6.678;2023-05-06T03:33:21;982.17;;;801.17;;
3000;SDS011;1510;51.072;6.678;2023-05-06T03:35:48;985.93;;;790.23;;
3000;SDS011;1510;51.072;6.678;2023-05-06T03:38:15;1005.43;;;773.37;;
3000;SDS011;1510;51.072;6.678;2023-05-06T03:40:43;1034.20;;;788.93;;
3000;SDS011;1510;51.072;6.678;2023-05-06T03:43:13;960.57;;;776.83;;
3000;SDS011;1510;51.072;6.678;2023-05-06T03:45:40;970.73;;;773.90;;
3000;SDS011;1510;51.072;6.678;2023-05-06T03:48:08;1033.10;;;793.70;;
3000;SDS011;1510;51.072;6.678;2023-05-06T03:50:37;1030.53;;;804.90;;
3000;SDS011;1510;51.072;6.678;2023-05-06T03:53:05;1014.30;;;804.27;;
3000;SDS011;1510;51.072;6.678;2023-05-06T03:55:32;931.77;;;794.90;;
3000;SDS011;1510;51.072;6.678;2023-05-06T03:58:00;1021.97;;;795.57;;
3000;SDS011;1510;51.072;6.678;2023-05-06T04:00:27;1063.20;;;802.20;;
3000;SDS011;1510;51.072;6.678;2023-05-06T04:02:54;1032.73;;;802.57;;
3000;SDS011;1510;51.072;6.678;2023-05-06T04:05:21;1062.63;;;793.07;;
3000;SDS011;1510;51.072;6.678;2023-05-06T04:07:48;981.73;;;789.70;;
3000;SDS011;1510;51.072;6.678;2023-05-06T04:10:15;989.87;;;801.53;;
3000;SDS011;1510;51.072;6.678;2023-05-06T04:12:42;958.53;;;811.70;;
3000;SDS011;1510;51.072;6.678;2023-05-06T04:15:10;980.57;;;782.00;;
3000;SDS011;1510;51.072;6.678;2023-05-06T04:17:38;954.03;;;796.40;;
3000;SDS011;1510;51.072;6.678;2023-05-06T04:20:05;959.67;;;814.53;;
3000;SDS011;1510;51.072;6.678;2023-05-06T04:22:35;944.47;;;808.43;;
3000;SDS011;1510;51.072;6.678;2023-05-06T04:25:02;932.53;;;804.03;;
3000;SDS011;1510;51.072;6.678;2023-05-06T04:27:31;920.17;;;802.50;;
3000;SDS011;1510;51.072;6.678;2023-05-06T04:29:58;929.73;;;800.83;;
3000;SDS011;1510;51.072;6.678;2023-05-06T04:32:26;912.20;;;780.13;;
3000;SDS011;1510;51.072;6.678;2023-05-06T04:34:53;928.57;;;785.30;;
3000;SDS011;1510;51.072;6.678;2023-05-06T04:37:20;962.80;;;804.97;;
3000;SDS011;1510;51.072;6.678;2023-05-06T04:39:48;930.10;;;791.10;;
3000;SDS011;1510;51.072;6.678;2023-05-06T04:42:14;952.93;;;785.93;;
3000;SDS011;1510;51.072;6.678;2023-05-06T04:44:42;946.80;;;788.70;;
3000;SDS011;1510;51.072;6.678;2023-05-06T04:47:08;990.33;;;811.73;;
3000;SDS011;1510;51.072;6.678;2023-05-06T04:49:37;984.40;;;809.00;;
3000;SDS011;1510;51.072;6.678;2023-05-06T04:52:05;975.10;;;809.90;;
3000;SDS011;1510;51.072;6.678;2023-05-06T04:54:32;968.60;;;822.00;;
3000;SDS011;1510;51.072;6.678;2023-05-06T04:56:59;983.47;;;806.80;;
3000;SDS011;1510;51.072;6.678;2023-05-06T04:59:26;973.37;;;814.63;;
3000;SDS011;1510;51.072;6.678;2023-05-06T05:01:53;1011.00;;;806.30;;
3000;SDS011;1510;51.072;6.678;2023-05-06T05:04:20;950.07;;;793.37;;
3000;SDS011;1510;51.072;6.678;2023-05-06T05:06:48;910.00;;;789.37;;
3000;SDS011;1510;51.072;6.678;2023-05-06T05:09:15;909.67;;;797.93;;
3000;SDS011;1510;51.072;6.678;2023-05-06T05:11:42;899.43;;;800.10;;
3000;SDS011;1510;51.072;6.678;2023-05-06T05:14:09;919.57;;;818.07;;
3000;SDS011;1510;51.072;6.678;2023-05-06T05:16:36;950.30;;;847.33;;
3000;SDS011;1510;51.072;6.678;2023-05-06T05:19:03;951.00;;;847.80;;
3000;SDS011;1510;51.072;6.678;2023-05-06T05:21:30;956.50;;;852.23;;
3000;SDS011;1510;51.072;6.678;2023-05-06T05:23:58;886.73;;;788.93;;
3000;SDS011;1510;51.072;6.678;2023-05-06T05:26:25;871.87;;;765.83;;
3000;SDS011;1510;51.072;6.678;2023-05-06T05:28:52;853.97;;;761.40;;
3000;SDS011;1510;51.072;6.678;2023-05-06T05:31:19;799.53;;;719.03;;
3000;SDS011;1510;51.072;6.678;2023-05-06T05:33:46;739.47;;;665.33;;
3000;SDS011;1510;51.072;6.678;2023-05-06T05:36:14;721.23;;;648.40;;
3000;SDS011;1510;51.072;6.678;2023-05-06T05:38:41;729.37;;;657.17;;
3000;SDS011;1510;51.072;6.678;2023-05-06T05:41:09;713.77;;;644.30;;
3000;SDS011;1510;51.072;6.678;2023-05-06T05:43:36;674.13;;;615.30;;
3000;SDS011;1510;51.072;6.678;2023-05-06T05:46:03;659.40;;;605.87;;
3000;SDS011;1510;51.072;6.678;2023-05-06T05:48:30;558.70;;;524.77;;
3000;SDS011;1510;51.072;6.678;2023-05-06T05:50:57;440.60;;;416.83;;
3000;SDS011;1510;51.072;6.678;2023-05-06T05:53:27;175.60;;;167.90;;
3000;SDS011;1510;51.072;6.678;2023-05-06T05:55:54;69.87;;;66.27;;
3000;SDS011;1510;51.072;6.678;2023-05-06T05:58:22;40.47;;;37.93;;
3000;SDS011;1510;51.072;6.678;2023-05-06T06:00:49;24.97;;;22.90;;
3000;SDS011;1510;51.072;6.678;2023-05-06T06:03:16;19.63;;;17.83;;
3000;SDS011;1510;51.072;6.678;2023-05-06T06:05:43;14.53;;;11.80;;
3000;SDS011;1510;51.072;6.678;2023-05-06T06:08:10;16.00;;;10.87;;
3000;SDS011;1510;51.072;6.678;2023-05-06T06:10:38;14.20;;;11.37;;
3000;SDS011;1510;51.072;6.678;2023-05-06T06:13:06;12.87;;;9.83;;
3000;SDS011;1510;51.072;6.678;2023-05-06T06:15:34;11.40;;;9.30;;
3000;SDS011;1510;51.072;6.678;2023-05-06T06:18:01;11.87;;;9.40;;
3000;SDS011;1510;51.072;6.678;2023-05-06T06:20:31;15.80;;;9.20;;
3000;SDS011;1510;51.072;6.678;2023-05-06T06:22:58;12.73;;;10.10;;
3000;SDS011;1510;51.072;6.678;2023-05-06T06:25:25;11.90;;;9.30;;
3000;SDS011;1510;51.072;6.678;2023-05-06T06:27:53;13.30;;;9.30;;
3000;SDS011;1510;51.072;6.678;2023-05-06T06:30:20;11.33;;;8.17;;
3000;SDS011;1510;51.072;6.678;2023-05-06T06:32:49;14.40;;;9.33;;
3000;SDS011;1510;51.072;6.678;2023-05-06T06:35:17;17.50;;;8.90;;
3000;SDS011;1510;51.072;6.678;2023-05-06T06:37:45;11.57;;;8.67;;
3000;SDS011;1510;51.072;6.678;2023-05-06T06:40:12;13.13;;;8.40;;
3000;SDS011;1510;51.072;6.678;2023-05-06T06:42:40;13.13;;;8.47;;
3000;SDS011;1510;51.072;6.678;2023-05-06T06:45:07;11.40;;;7.80;;
3000;SDS011;1510;51.072;6.678;2023-05-06T06:47:35;12.70;;;7.60;;
3000;SDS011;1510;51.072;6.678;2023-05-06T06:50:04;11.87;;;7.73;;
3000;SDS011;1510;51.072;6.678;2023-05-06T06:52:32;10.87;;;7.00;;
3000;SDS011;1510;51.072;6.678;2023-05-06T06:54:59;12.33;;;7.33;;
3000;SDS011;1510;51.072;6.678;2023-05-06T06:57:26;10.33;;;7.47;;
3000;SDS011;1510;51.072;6.678;2023-05-06T06:59:53;9.10;;;6.87;;
3000;SDS011;1510;51.072;6.678;2023-05-06T07:02:20;12.33;;;8.00;;
3000;SDS011;1510;51.072;6.678;2023-05-06T07:04:48;10.23;;;8.03;;
3000;SDS011;1510;51.072;6.678;2023-05-06T07:07:16;14.60;;;9.50;;
3000;SDS011;1510;51.072;6.678;2023-05-06T07:09:43;16.23;;;14.67;;
3000;SDS011;1510;51.072;6.678;2023-05-06T07:12:09;13.70;;;12.50;;
3000;SDS011;1510;51.072;6.678;2023-05-06T07:14:37;15.87;;;14.63;;
3000;SDS011;1510;51.072;6.678;2023-05-06T07:17:03;15.70;;;14.40;;
3000;SDS011;1510;51.072;6.678;2023-05-06T07:19:30;22.50;;;20.80;;
3000;SDS011;1510;51.072;6.678;2023-05-06T07:21:57;18.70;;;17.00;;
3000;SDS011;1510;51.072;6.678;2023-05-06T07:24:28;25.17;;;23.47;;
3000;SDS011;1510;51.072;6.678;2023-05-06T07:26:55;29.23;;;27.03;;
3000;SDS011;1510;51.072;6.678;2023-05-06T07:29:22;12.30;;;11.20;;
3000;SDS011;1510;51.072;6.678;2023-05-06T07:31:50;20.10;;;18.70;;
3000;SDS011;1510;51.072;6.678;2023-05-06T07:34:17;22.83;;;21.33;;
3000;SDS011;1510;51.072;6.678;2023-05-06T07:36:44;15.23;;;14.13;;
3000;SDS011;1510;51.072;6.678;2023-05-06T07:39:11;16.90;;;15.70;;
3000;SDS011;1510;51.072;6.678;2023-05-06T07:41:40;12.80;;;11.70;;
3000;SDS011;1510;51.072;6.678;2023-05-06T07:44:07;12.37;;;11.27;;
3000;SDS011;1510;51.072;6.678;2023-05-06T07:46:34;12.13;;;11.07;;
3000;SDS011;1510;51.072;6.678;2023-05-06T07:49:01;9.83;;;6.20;;
3000;SDS011;1510;51.072;6.678;2023-05-06T07:51:28;9.20;;;6.30;;
3000;SDS011;1510;51.072;6.678;2023-05-06T07:53:55;8.23;;;7.10;;
3000;SDS011;1510;51.072;6.678;2023-05-06T07:56:22;8.30;;;5.93;;
3000;SDS011;1510;51.072;6.678;2023-05-06T07:58:51;10.63;;;5.30;;
3000;SDS011;1510;51.072;6.678;2023-05-06T08:01:18;10.15;;;4.90;;
3000;SDS011;1510;51.072;6.678;2023-05-06T08:03:45;6.63;;;3.60;;
3000;SDS011;1510;51.072;6.678;2023-05-06T08:06:13;7.80;;;4.67;;
3000;SDS011;1510;51.072;6.678;2023-05-06T08:08:40;6.90;;;3.50;;
3000;SDS011;1510;51.072;6.678;2023-05-06T08:11:07;7.90;;;3.50;;
3000;SDS011;1510;51.072;6.678;2023-05-06T08:13:34;6.57;;;3.10;;
3000;SDS011;1510;51.072;6.678;2023-05-06T08:16:03;6.00;;;3.50;;
3000;SDS011;1510;51.072;6.678;2023-05-06T08:18:30;6.17;;;3.70;;
3000;SDS011;1510;51.072;6.678;2023-05-06T08:20:57;6.47;;;3.37;;
3000;SDS011;1510;51.072;6.678;2023-05-06T08:23:24;8.10;;;3.80;;
3000;SDS011;1510;51.072;6.678;2023-05-06T08:25:51;6.03;;;2.97;;
3000;SDS011;1510;51.072;6.678;2023-05-06T08:28:18;7.50;;;3.07;;
3000;SDS011;1510;51.072;6.678;2023-05-06T08:30:45;8.10;;;2.87;;
3000;SDS011;1510;51.072;6.678;2023-05-06T08:33:16;6.53;;;3.40;;
3000;SDS011;1510;51.072;6.678;2023-05-06T08:35:43;8.10;;;3.60;;
3000;SDS011;1510;51.072;6.678;2023-05-06T08:38:10;6.93;;;3.57;;
3000;SDS011;1510;51.072;6.678;2023-05-06T08:40:40;6.07;;;3.67;;
3000;SDS011;1510;51.072;6.678;2023-05-06T08:43:11;8.30;;;3.37;;
3000;SDS011;1510;51.072;6.678;2023-05-06T08:45:38;7.00;;;3.90;;
3000;SDS011;1510;51.072;6.678;2023-05-06T08:48:06;8.13;;;3.70;;
3000;SDS011;1510;51.072;6.678;2023-05-06T08:50:36;7.40;;;3.17;;
3000;SDS011;1510;51.072;6.678;2023-05-06T08:53:08;5.70;;;3.07;;
3000;SDS011;1510;51.072;6.678;2023-05-06T08:55:37;6.10;;;3.30;;
3000;SDS011;1510;51.072;6.678;2023-05-06T08:58:05;5.40;;;2.60;;
3000;SDS011;1510;51.072;6.678;2023-05-06T09:00:33;5.83;;;2.97;;
3000;SDS011;1510;51.072;6.678;2023-05-06T09:03:00;6.70;;;2.93;;
3000;SDS011;1510;51.072;6.678;2023-05-06T09:05:27;6.27;;;3.23;;
3000;SDS011;1510;51.072;6.678;2023-05-06T09:07:56;7.20;;;3.53;;
3000;SDS011;1510;51.072;6.678;2023-05-06T09:10:24;5.90;;;2.90;;
3000;SDS011;1510;51.072;6.678;2023-05-06T09:12:56;5.37;;;2.20;;
3000;SDS011;1510;51.072;6.678;2023-05-06T09:15:25;8.33;;;3.27;;
3000;SDS011;1510;51.072;6.678;2023-05-06T09:17:53;5.20;;;2.47;;
3000;SDS011;1510;51.072;6.678;2023-05-06T09:20:21;5.10;;;2.30;;
3000;SDS011;1510;51.072;6.678;2023-05-06T09:22:48;5.40;;;2.10;;
3000;SDS011;1510;51.072;6.678;2023-05-06T09:25:17;5.30;;;2.10;;
3000;SDS011;1510;51.072;6.678;2023-05-06T09:27:44;4.57;;;1.67;;
3000;SDS011;1510;51.072;6.678;2023-05-06T09:30:11;8.73;;;1.90;;
3000;SDS011;1510;51.072;6.678;2023-05-06T09:32:39;6.60;;;2.40;;
3000;SDS011;1510;51.072;6.678;2023-05-06T09:35:07;5.93;;;2.40;;
3000;SDS011;1510;51.072;6.678;2023-05-06T09:37:37;9.40;;;2.70;;
3000;SDS011;1510;51.072;6.678;2023-05-06T09:40:04;7.03;;;1.90;;
3000;SDS011;1510;51.072;6.678;2023-05-06T09:42:34;5.00;;;2.00;;
3000;SDS011;1510;51.072;6.678;2023-05-06T09:45:01;6.10;;;2.20;;
3000;SDS011;1510;51.072;6.678;2023-05-06T09:47:31;4.97;;;2.07;;
3000;SDS011;1510;51.072;6.678;2023-05-06T09:49:59;7.00;;;2.67;;
3000;SDS011;1510;51.072;6.678;2023-05-06T09:52:26;6.20;;;1.73;;
3000;SDS011;1510;51.072;6.678;2023-05-06T09:54:54;5.70;;;1.70;;
3000;SDS011;1510;51.072;6.678;2023-05-06T09:57:22;6.20;;;2.33;;
3000;SDS011;1510;51.072;6.678;2023-05-06T09:59:50;5.50;;;1.50;;
3000;SDS011;1510;51.072;6.678;2023-05-06T10:02:19;5.03;;;1.60;;
3000;SDS011;1510;51.072;6.678;2023-05-06T10:04:48;6.20;;;2.03;;
3000;SDS011;1510;51.072;6.678;2023-05-06T10:07:16;5.97;;;1.63;;
3000;SDS011;1510;51.072;6.678;2023-05-06T10:09:47;5.80;;;1.30;;
3000;SDS011;1510;51.072;6.678;2023-05-06T10:12:16;5.80;;;1.43;;
3000;SDS011;1510;51.072;6.678;2023-05-06T10:14:44;5.60;;;1.27;;
3000;SDS011;1510;51.072;6.678;2023-05-06T10:17:12;5.43;;;1.47;;
3000;SDS011;1510;51.072;6.678;2023-05-06T10:19:41;5.47;;;1.57;;
3000;SDS011;1510;51.072;6.678;2023-05-06T10:22:13;5.50;;;1.57;;
3000;SDS011;1510;51.072;6.678;2023-05-06T10:24:44;8.80;;;1.40;;
3000;SDS011;1510;51.072;6.678;2023-05-06T10:27:21;5.47;;;1.17;;
3000;SDS011;1510;51.072;6.678;2023-05-06T10:29:50;4.70;;;1.20;;
3000;SDS011;1510;51.072;6.678;2023-05-06T10:32:20;6.07;;;1.40;;
3000;SDS011;1510;51.072;6.678;2023-05-06T10:34:52;4.83;;;1.27;;
3000;SDS011;1510;51.072;6.678;2023-05-06T10:37:21;5.20;;;1.37;;
3000;SDS011;1510;51.072;6.678;2023-05-06T10:39:50;8.20;;;1.67;;
3000;SDS011;1510;51.072;6.678;2023-05-06T10:42:18;5.67;;;1.23;;
3000;SDS011;1510;51.072;6.678;2023-05-06T10:44:55;6.07;;;1.70;;
3000;SDS011;1510;51.072;6.678;2023-05-06T10:47:25;5.07;;;1.00;;
3000;SDS011;1510;51.072;6.678;2023-05-06T10:52:47;5.40;;;1.50;;
3000;SDS011;1510;51.072;6.678;2023-05-06T10:55:25;6.23;;;1.60;;
3000;SDS011;1510;51.072;6.678;2023-05-06T10:57:54;6.93;;;1.70;;
3000;SDS011;1510;51.072;6.678;2023-05-06T11:00:22;4.87;;;1.23;;
3000;SDS011;1510;51.072;6.678;2023-05-06T11:02:54;6.83;;;1.30;;
3000;SDS011;1510;51.072;6.678;2023-05-06T11:05:22;6.30;;;1.60;;
3000;SDS011;1510;51.072;6.678;2023-05-06T11:07:49;5.30;;;1.43;;
3000;SDS011;1510;51.072;6.678;2023-05-06T11:10:30;5.70;;;1.30;;
3000;SDS011;1510;51.072;6.678;2023-05-06T11:12:58;5.60;;;1.60;;
3000;SDS011;1510;51.072;6.678;2023-05-06T11:15:44;5.07;;;1.57;;
3000;SDS011;1510;51.072;6.678;2023-05-06T11:24:10;5.90;;;1.53;;
3000;SDS011;1510;51.072;6.678;2023-05-06T11:26:39;4.87;;;1.40;;
3000;SDS011;1510;51.072;6.678;2023-05-06T11:29:07;5.00;;;1.40;;
3000;SDS011;1510;51.072;6.678;2023-05-06T11:31:38;5.40;;;1.50;;
3000;SDS011;1510;51.072;6.678;2023-05-06T11:34:08;8.33;;;1.50;;
3000;SDS011;1510;51.072;6.678;2023-05-06T11:36:43;5.60;;;1.60;;
3000;SDS011;1510;51.072;6.678;2023-05-06T11:39:11;5.30;;;1.70;;
3000;SDS011;1510;51.072;6.678;2023-05-06T11:41:38;7.03;;;1.53;;
3000;SDS011;1510;51.072;6.678;2023-05-06T11:44:06;6.73;;;1.40;;
3000;SDS011;1510;51.072;6.678;2023-05-06T11:46:34;8.10;;;1.40;;
3000;SDS011;1510;51.072;6.678;2023-05-06T11:49:03;4.97;;;1.50;;
3000;SDS011;1510;51.072;6.678;2023-05-06T11:51:42;5.80;;;1.70;;
3000;SDS011;1510;51.072;6.678;2023-05-06T11:54:09;4.70;;;1.40;;
3000;SDS011;1510;51.072;6.678;2023-05-06T11:56:42;4.80;;;1.23;;
3000;SDS011;1510;51.072;6.678;2023-05-06T11:59:10;5.17;;;1.60;;
3000;SDS011;1510;51.072;6.678;2023-05-06T12:01:39;5.57;;;1.63;;
3000;SDS011;1510;51.072;6.678;2023-05-06T12:04:06;5.67;;;1.30;;
3000;SDS011;1510;51.072;6.678;2023-05-06T12:06:35;6.40;;;1.40;;
3000;SDS011;1510;51.072;6.678;2023-05-06T12:09:03;4.90;;;1.47;;
3000;SDS011;1510;51.072;6.678;2023-05-06T12:11:31;7.60;;;1.30;;
3000;SDS011;1510;51.072;6.678;2023-05-06T12:13:59;4.63;;;1.47;;
3000;SDS011;1510;51.072;6.678;2023-05-06T12:16:27;8.17;;;1.70;;
3000;SDS011;1510;51.072;6.678;2023-05-06T12:18:54;7.83;;;1.70;;
3000;SDS011;1510;51.072;6.678;2023-05-06T12:21:21;5.73;;;1.40;;
3000;SDS011;1510;51.072;6.678;2023-05-06T12:23:50;6.40;;;1.37;;
3000;SDS011;1510;51.072;6.678;2023-05-06T12:26:18;6.40;;;1.87;;
3000;SDS011;1510;51.072;6.678;2023-05-06T12:28:45;8.93;;;1.40;;
3000;SDS011;1510;51.072;6.678;2023-05-06T12:31:18;7.10;;;2.70;;
3000;SDS011;1510;51.072;6.678;2023-05-06T12:33:46;9.53;;;1.80;;
3000;SDS011;1510;51.072;6.678;2023-05-06T12:36:14;5.20;;;1.53;;
3000;SDS011;1510;51.072;6.678;2023-05-06T12:38:48;6.03;;;1.87;;
3000;SDS011;1510;51.072;6.678;2023-05-06T12:41:19;5.60;;;1.80;;
3000;SDS011;1510;51.072;6.678;2023-05-06T12:43:46;9.37;;;1.70;;
3000;SDS011;1510;51.072;6.678;2023-05-06T12:46:13;6.80;;;1.50;;
3000;SDS011;1510;51.072;6.678;2023-05-06T12:48:54;6.00;;;1.50;;
3000;SDS011;1510;51.072;6.678;2023-05-06T12:51:22;7.43;;;1.53;;
3000;SDS011;1510;51.072;6.678;2023-05-06T12:53:50;6.07;;;1.33;;
3000;SDS011;1510;51.072;6.678;2023-05-06T12:56:17;5.87;;;1.50;;
3000;SDS011;1510;51.072;6.678;2023-05-06T12:58:54;7.70;;;1.40;;
3000;SDS011;1510;51.072;6.678;2023-05-06T13:01:21;5.73;;;1.43;;
3000;SDS011;1510;51.072;6.678;2023-05-06T13:03:48;8.03;;;1.53;;
3000;SDS011;1510;51.072;6.678;2023-05-06T13:06:16;6.67;;;2.00;;
3000;SDS011;1510;51.072;6.678;2023-05-06T13:08:43;4.87;;;1.30;;
3000;SDS011;1510;51.072;6.678;2023-05-06T13:11:11;7.57;;;1.23;;
3000;SDS011;1510;51.072;6.678;2023-05-06T13:13:38;9.00;;;1.40;;
3000;SDS011;1510;51.072;6.678;2023-05-06T13:16:06;5.33;;;1.37;;
3000;SDS011;1510;51.072;6.678;2023-05-06T13:18:34;5.77;;;1.70;;
3000;SDS011;1510;51.072;6.678;2023-05-06T13:21:01;7.93;;;2.07;;
3000;SDS011;1510;51.072;6.678;2023-05-06T13:23:28;6.50;;;1.40;;
3000;SDS011;1510;51.072;6.678;2023-05-06T13:25:59;6.23;;;1.50;;
3000;SDS011;1510;51.072;6.678;2023-05-06T13:28:30;9.83;;;1.73;;
3000;SDS011;1510;51.072;6.678;2023-05-06T13:30:58;5.47;;;1.30;;
3000;SDS011;1510;51.072;6.678;2023-05-06T13:33:25;5.97;;;1.53;;
3000;SDS011;1510;51.072;6.678;2023-05-06T13:35:52;5.90;;;1.43;;
3000;SDS011;1510;51.072;6.678;2023-05-06T13:38:19;6.07;;;1.60;;
3000;SDS011;1510;51.072;6.678;2023-05-06T13:40:46;8.13;;;1.60;;
3000;SDS011;1510;51.072;6.678;2023-05-06T13:43:15;6.32;;;1.70;;
3000;SDS011;1510;51.072;6.678;2023-05-06T13:45:43;4.40;;;1.43;;
3000;SDS011;1510;51.072;6.678;2023-05-06T13:48:10;5.13;;;1.50;;
3000;SDS011;1510;51.072;6.678;2023-05-06T13:50:39;6.40;;;1.87;;
3000;SDS011;1510;51.072;6.678;2023-05-06T13:53:06;5.63;;;1.60;;
3000;SDS011;1510;51.072;6.678;2023-05-06T13:55:33;7.13;;;1.97;;
3000;SDS011;1510;51.072;6.678;2023-05-06T13:58:01;5.40;;;1.60;;
3000;SDS011;1510;51.072;6.678;2023-05-06T14:00:28;4.67;;;1.60;;
3000;SDS011;1510;51.072;6.678;2023-05-06T14:02:56;7.00;;;2.00;;
3000;SDS011;1510;51.072;6.678;2023-05-06T14:05:23;4.70;;;1.87;;
3000;SDS011;1510;51.072;6.678;2023-05-06T14:07:50;8.23;;;2.70;;
3000;SDS011;1510;51.072;6.678;2023-05-06T14:10:17;5.82;;;2.22;;
3000;SDS011;1510;51.072;6.678;2023-05-06T14:12:44;6.43;;;1.97;;
3000;SDS011;1510;51.072;6.678;2023-05-06T14:15:12;6.60;;;2.00;;
3000;SDS011;1510;51.072;6.678;2023-05-06T14:17:39;9.07;;;2.97;;
3000;SDS011;1510;51.072;6.678;2023-05-06T14:20:08;9.37;;;2.03;;
3000;SDS011;1510;51.072;6.678;2023-05-06T14:22:36;5.20;;;2.43;;
3000;SDS011;1510;51.072;6.678;2023-05-06T14:25:05;9.27;;;3.20;;
3000;SDS011;1510;51.072;6.678;2023-05-06T14:27:33;7.00;;;3.27;;
3000;SDS011;1510;51.072;6.678;2023-05-06T14:30:00;10.13;;;9.07;;
3000;SDS011;1510;51.072;6.678;2023-05-06T14:32:29;13.43;;;12.47;;
3000;SDS011;1510;51.072;6.678;2023-05-06T14:34:56;21.07;;;19.97;;
3000;SDS011;1510;51.072;6.678;2023-05-06T14:37:24;19.67;;;18.57;;
3000;SDS011;1510;51.072;6.678;2023-05-06T14:39:51;10.90;;;10.10;;
3000;SDS011;1510;51.072;6.678;2023-05-06T14:42:18;5.70;;;2.53;;
3000;SDS011;1510;51.072;6.678;2023-05-06T14:44:47;9.03;;;8.17;;
3000;SDS011;1510;51.072;6.678;2023-05-06T14:47:14;8.80;;;8.10;;
3000;SDS011;1510;51.072;6.678;2023-05-06T14:49:44;8.60;;;7.80;;
3000;SDS011;1510;51.072;6.678;2023-05-06T14:52:11;12.30;;;10.90;;
3000;SDS011;1510;51.072;6.678;2023-05-06T14:54:39;11.23;;;10.30;;
3000;SDS011;1510;51.072;6.678;2023-05-06T14:57:08;7.57;;;6.97;;
3000;SDS011;1510;51.072;6.678;2023-05-06T14:59:36;14.10;;;13.07;;
3000;SDS011;1510;51.072;6.678;2023-05-06T15:02:05;17.80;;;16.80;;